sensor_id;sensor_type;location;lat;lon;timestamp;temperature;humidity
23813;DHT22;12087;45.190;5.688;2022-12-18T00:04:18;2.50;99.90
23813;DHT22;12087;45.190;5.688;2022-12-18T00:09:40;2.40;99.90
23813;DHT22;12087;45.190;5.688;2022-12-18T00:15:04;2.50;99.90
23813;DHT22;12087;45.190;5.688;2022-12-18T00:20:26;2.50;99.90
23813;DHT22;12087;45.190;5.688;2022-12-18T00:25:47;2.60;99.90
23813;DHT22;12087;45.190;5.688;2022-12-18T00:31:12;2.60;99.90
23813;DHT22;12087;45.190;5.688;2022-12-18T00:36:34;2.50;99.90
23813;DHT22;12087;45.190;5.688;2022-12-18T00:41:56;2.60;99.90
23813;DHT22;12087;45.190;5.688;2022-12-18T00:47:37;2.50;99.90
23813;DHT22;12087;45.190;5.688;2022-12-18T00:52:59;2.50;99.90
23813;DHT22;12087;45.190;5.688;2022-12-18T00:58:21;2.40;99.90
23813;DHT22;12087;45.190;5.688;2022-12-18T01:03:44;2.30;99.90
23813;DHT22;12087;45.190;5.688;2022-12-18T01:09:07;2.30;99.90
23813;DHT22;12087;45.190;5.688;2022-12-18T01:14:29;2.30;99.90
23813;DHT22;12087;45.190;5.688;2022-12-18T01:19:52;2.30;99.90
23813;DHT22;12087;45.190;5.688;2022-12-18T01:25:14;2.30;99.90
23813;DHT22;12087;45.190;5.688;2022-12-18T01:30:36;2.20;99.90
23813;DHT22;12087;45.190;5.688;2022-12-18T01:36:00;2.20;99.90
23813;DHT22;12087;45.190;5.688;2022-12-18T01:41:22;2.20;99.90
23813;DHT22;12087;45.190;5.688;2022-12-18T01:46:45;2.30;99.90
23813;DHT22;12087;45.190;5.688;2022-12-18T01:52:08;2.20;99.90
23813;DHT22;12087;45.190;5.688;2022-12-18T01:57:30;2.20;99.90
23813;DHT22;12087;45.190;5.688;2022-12-18T02:02:52;2.00;99.90
23813;DHT22;12087;45.190;5.688;2022-12-18T02:08:16;2.10;99.90
23813;DHT22;12087;45.190;5.688;2022-12-18T02:13:41;2.10;99.90
23813;DHT22;12087;45.190;5.688;2022-12-18T02:19:06;2.10;99.90
23813;DHT22;12087;45.190;5.688;2022-12-18T02:24:33;2.20;99.90
23813;DHT22;12087;45.190;5.688;2022-12-18T02:29:58;2.10;99.90
23813;DHT22;12087;45.190;5.688;2022-12-18T02:35:24;2.20;99.90
23813;DHT22;12087;45.190;5.688;2022-12-18T02:40:46;2.20;99.90
23813;DHT22;12087;45.190;5.688;2022-12-18T02:46:23;2.20;99.90
23813;DHT22;12087;45.190;5.688;2022-12-18T02:51:48;2.20;99.90
23813;DHT22;12087;45.190;5.688;2022-12-18T02:57:14;2.20;99.90
23813;DHT22;12087;45.190;5.688;2022-12-18T03:02:40;2.20;99.90
23813;DHT22;12087;45.190;5.688;2022-12-18T03:08:06;2.20;99.90
23813;DHT22;12087;45.190;5.688;2022-12-18T03:13:31;2.20;99.90
23813;DHT22;12087;45.190;5.688;2022-12-18T03:18:56;2.10;99.90
23813;DHT22;12087;45.190;5.688;2022-12-18T03:24:20;2.10;99.90
23813;DHT22;12087;45.190;5.688;2022-12-18T03:29:43;2.10;99.90
23813;DHT22;12087;45.190;5.688;2022-12-18T03:35:09;2.20;99.90
23813;DHT22;12087;45.190;5.688;2022-12-18T03:40:34;2.10;99.90
23813;DHT22;12087;45.190;5.688;2022-12-18T03:45:59;2.10;99.90
23813;DHT22;12087;45.190;5.688;2022-12-18T03:51:28;2.10;99.90
23813;DHT22;12087;45.190;5.688;2022-12-18T03:56:54;2.10;99.90
23813;DHT22;12087;45.190;5.688;2022-12-18T04:02:16;2.20;99.90
23813;DHT22;12087;45.190;5.688;2022-12-18T04:07:40;2.20;99.90
23813;DHT22;12087;45.190;5.688;2022-12-18T04:13:03;2.20;99.90
23813;DHT22;12087;45.190;5.688;2022-12-18T04:18:25;2.20;99.90
23813;DHT22;12087;45.190;5.688;2022-12-18T04:23:48;2.20;99.90
23813;DHT22;12087;45.190;5.688;2022-12-18T04:29:10;2.20;99.90
23813;DHT22;12087;45.190;5.688;2022-12-18T04:34:32;2.10;99.90
23813;DHT22;12087;45.190;5.688;2022-12-18T04:39:56;2.10;99.90
23813;DHT22;12087;45.190;5.688;2022-12-18T04:45:18;2.00;99.90
23813;DHT22;12087;45.190;5.688;2022-12-18T04:50:39;2.00;99.90
23813;DHT22;12087;45.190;5.688;2022-12-18T04:56:04;1.80;99.90
23813;DHT22;12087;45.190;5.688;2022-12-18T05:01:26;1.80;99.90
23813;DHT22;12087;45.190;5.688;2022-12-18T05:06:48;1.70;99.90
23813;DHT22;12087;45.190;5.688;2022-12-18T05:12:11;1.70;99.90
23813;DHT22;12087;45.190;5.688;2022-12-18T05:17:33;1.60;99.90
23813;DHT22;12087;45.190;5.688;2022-12-18T05:22:55;1.70;99.90
23813;DHT22;12087;45.190;5.688;2022-12-18T05:28:19;1.70;99.90
23813;DHT22;12087;45.190;5.688;2022-12-18T05:33:41;1.60;99.90
23813;DHT22;12087;45.190;5.688;2022-12-18T05:39:03;1.70;99.90
23813;DHT22;12087;45.190;5.688;2022-12-18T05:44:28;1.60;99.90
23813;DHT22;12087;45.190;5.688;2022-12-18T05:49:50;1.50;99.90
23813;DHT22;12087;45.190;5.688;2022-12-18T05:55:12;1.30;99.90
23813;DHT22;12087;45.190;5.688;2022-12-18T06:00:36;1.30;99.90
23813;DHT22;12087;45.190;5.688;2022-12-18T06:06:00;1.30;99.90
23813;DHT22;12087;45.190;5.688;2022-12-18T06:11:23;1.30;99.90
23813;DHT22;12087;45.190;5.688;2022-12-18T06:16:46;1.40;99.90
23813;DHT22;12087;45.190;5.688;2022-12-18T06:22:08;1.30;99.90
23813;DHT22;12087;45.190;5.688;2022-12-18T06:27:30;1.30;99.90
23813;DHT22;12087;45.190;5.688;2022-12-18T06:32:55;1.40;99.90
23813;DHT22;12087;45.190;5.688;2022-12-18T06:38:17;1.40;99.90
23813;DHT22;12087;45.190;5.688;2022-12-18T06:43:39;1.40;99.90
23813;DHT22;12087;45.190;5.688;2022-12-18T06:49:02;1.40;99.90
23813;DHT22;12087;45.190;5.688;2022-12-18T06:54:24;1.30;99.90
23813;DHT22;12087;45.190;5.688;2022-12-18T06:59:46;1.40;99.90
23813;DHT22;12087;45.190;5.688;2022-12-18T07:05:10;1.50;99.90
23813;DHT22;12087;45.190;5.688;2022-12-18T07:10:32;1.50;99.90
23813;DHT22;12087;45.190;5.688;2022-12-18T07:15:54;1.50;99.90
23813;DHT22;12087;45.190;5.688;2022-12-18T07:21:17;1.60;99.90
23813;DHT22;12087;45.190;5.688;2022-12-18T07:26:39;1.60;99.90
23813;DHT22;12087;45.190;5.688;2022-12-18T07:32:01;1.60;99.90
23813;DHT22;12087;45.190;5.688;2022-12-18T07:37:25;1.50;99.90
23813;DHT22;12087;45.190;5.688;2022-12-18T07:42:47;1.50;99.90
23813;DHT22;12087;45.190;5.688;2022-12-18T07:48:09;1.40;99.90
23813;DHT22;12087;45.190;5.688;2022-12-18T07:53:33;1.50;99.90
23813;DHT22;12087;45.190;5.688;2022-12-18T07:58:55;1.50;99.90
23813;DHT22;12087;45.190;5.688;2022-12-18T08:04:17;1.50;99.90
23813;DHT22;12087;45.190;5.688;2022-12-18T08:09:40;1.50;99.90
23813;DHT22;12087;45.190;5.688;2022-12-18T08:15:02;1.50;99.90
23813;DHT22;12087;45.190;5.688;2022-12-18T08:20:24;1.50;99.90
23813;DHT22;12087;45.190;5.688;2022-12-18T08:25:48;1.50;99.90
23813;DHT22;12087;45.190;5.688;2022-12-18T08:31:10;1.50;99.90
23813;DHT22;12087;45.190;5.688;2022-12-18T08:36:32;1.60;99.90
23813;DHT22;12087;45.190;5.688;2022-12-18T08:41:55;1.60;99.90
23813;DHT22;12087;45.190;5.688;2022-12-18T08:47:34;1.60;99.90
23813;DHT22;12087;45.190;5.688;2022-12-18T08:52:56;1.70;99.90
23813;DHT22;12087;45.190;5.688;2022-12-18T08:58:20;1.70;99.90
23813;DHT22;12087;45.190;5.688;2022-12-18T09:03:42;1.80;99.90
23813;DHT22;12087;45.190;5.688;2022-12-18T09:09:10;1.90;99.90
23813;DHT22;12087;45.190;5.688;2022-12-18T09:14:36;2.00;99.90
23813;DHT22;12087;45.190;5.688;2022-12-18T09:19:58;2.10;99.90
23813;DHT22;12087;45.190;5.688;2022-12-18T09:25:20;2.20;99.90
23813;DHT22;12087;45.190;5.688;2022-12-18T09:30:45;2.30;99.90
23813;DHT22;12087;45.190;5.688;2022-12-18T09:36:09;2.40;99.90
23813;DHT22;12087;45.190;5.688;2022-12-18T09:41:41;2.50;99.90
23813;DHT22;12087;45.190;5.688;2022-12-18T09:47:07;2.60;99.90
23813;DHT22;12087;45.190;5.688;2022-12-18T09:52:32;2.70;99.90
23813;DHT22;12087;45.190;5.688;2022-12-18T09:57:56;2.80;99.90
23813;DHT22;12087;45.190;5.688;2022-12-18T10:03:20;3.00;99.90
23813;DHT22;12087;45.190;5.688;2022-12-18T10:08:43;3.10;99.90
23813;DHT22;12087;45.190;5.688;2022-12-18T10:14:09;3.20;99.90
23813;DHT22;12087;45.190;5.688;2022-12-18T10:19:36;3.40;99.90
23813;DHT22;12087;45.190;5.688;2022-12-18T10:25:01;3.50;99.90
23813;DHT22;12087;45.190;5.688;2022-12-18T10:30:25;3.60;99.90
23813;DHT22;12087;45.190;5.688;2022-12-18T10:35:49;3.70;99.90
23813;DHT22;12087;45.190;5.688;2022-12-18T10:41:23;3.80;99.90
23813;DHT22;12087;45.190;5.688;2022-12-18T10:46:47;3.90;99.90
23813;DHT22;12087;45.190;5.688;2022-12-18T10:52:14;4.00;99.90
23813;DHT22;12087;45.190;5.688;2022-12-18T10:57:37;4.10;99.90
23813;DHT22;12087;45.190;5.688;2022-12-18T11:02:59;4.20;99.90
23813;DHT22;12087;45.190;5.688;2022-12-18T11:08:24;4.30;99.90
23813;DHT22;12087;45.190;5.688;2022-12-18T11:13:51;4.40;99.90
23813;DHT22;12087;45.190;5.688;2022-12-18T11:19:21;4.50;99.90
23813;DHT22;12087;45.190;5.688;2022-12-18T11:24:54;4.60;99.90
23813;DHT22;12087;45.190;5.688;2022-12-18T11:30:21;4.70;99.90
23813;DHT22;12087;45.190;5.688;2022-12-18T11:35:49;4.80;99.90
23813;DHT22;12087;45.190;5.688;2022-12-18T11:41:16;5.00;99.90
23813;DHT22;12087;45.190;5.688;2022-12-18T11:47:05;5.10;99.90
23813;DHT22;12087;45.190;5.688;2022-12-18T11:52:32;5.10;99.90
23813;DHT22;12087;45.190;5.688;2022-12-18T11:57:58;5.20;99.90
23813;DHT22;12087;45.190;5.688;2022-12-18T12:03:29;5.30;99.90
23813;DHT22;12087;45.190;5.688;2022-12-18T12:09:02;5.40;99.90
23813;DHT22;12087;45.190;5.688;2022-12-18T12:14:41;5.50;99.90
23813;DHT22;12087;45.190;5.688;2022-12-18T12:20:06;5.60;99.90
23813;DHT22;12087;45.190;5.688;2022-12-18T12:25:33;5.70;99.90
23813;DHT22;12087;45.190;5.688;2022-12-18T12:31:10;5.80;99.90
23813;DHT22;12087;45.190;5.688;2022-12-18T12:36:36;5.90;99.90
23813;DHT22;12087;45.190;5.688;2022-12-18T12:42:04;5.90;99.90
23813;DHT22;12087;45.190;5.688;2022-12-18T12:47:45;6.10;99.90
23813;DHT22;12087;45.190;5.688;2022-12-18T12:53:09;6.20;99.90
23813;DHT22;12087;45.190;5.688;2022-12-18T12:58:36;6.40;99.90
23813;DHT22;12087;45.190;5.688;2022-12-18T13:04:08;6.50;99.90
23813;DHT22;12087;45.190;5.688;2022-12-18T13:09:34;6.80;99.90
23813;DHT22;12087;45.190;5.688;2022-12-18T13:15:21;7.10;99.90
23813;DHT22;12087;45.190;5.688;2022-12-18T13:20:46;7.20;99.90
23813;DHT22;12087;45.190;5.688;2022-12-18T13:37:43;7.50;99.90
23813;DHT22;12087;45.190;5.688;2022-12-18T13:43:15;7.60;99.90
23813;DHT22;12087;45.190;5.688;2022-12-18T13:48:37;7.70;99.90
23813;DHT22;12087;45.190;5.688;2022-12-18T13:54:05;7.80;99.90
23813;DHT22;12087;45.190;5.688;2022-12-18T13:59:32;7.80;99.90
23813;DHT22;12087;45.190;5.688;2022-12-18T14:04:54;7.90;99.90
23813;DHT22;12087;45.190;5.688;2022-12-18T14:10:18;8.00;99.90
23813;DHT22;12087;45.190;5.688;2022-12-18T14:15:41;7.90;99.90
23813;DHT22;12087;45.190;5.688;2022-12-18T14:21:04;7.80;99.90
23813;DHT22;12087;45.190;5.688;2022-12-18T14:26:28;7.60;99.90
23813;DHT22;12087;45.190;5.688;2022-12-18T14:32:10;7.50;99.90
23813;DHT22;12087;45.190;5.688;2022-12-18T14:37:32;7.40;99.90
23813;DHT22;12087;45.190;5.688;2022-12-18T14:42:56;7.30;99.90
23813;DHT22;12087;45.190;5.688;2022-12-18T14:48:18;7.30;99.90
23813;DHT22;12087;45.190;5.688;2022-12-18T14:53:42;7.20;99.90
23813;DHT22;12087;45.190;5.688;2022-12-18T14:59:12;7.10;99.90
23813;DHT22;12087;45.190;5.688;2022-12-18T15:04:37;7.10;99.90
23813;DHT22;12087;45.190;5.688;2022-12-18T15:10:00;7.00;99.90
23813;DHT22;12087;45.190;5.688;2022-12-18T15:21:09;6.90;99.90
23813;DHT22;12087;45.190;5.688;2022-12-18T15:26:31;6.80;99.90
23813;DHT22;12087;45.190;5.688;2022-12-18T15:31:59;6.80;99.90
23813;DHT22;12087;45.190;5.688;2022-12-18T15:37:23;6.70;99.90
23813;DHT22;12087;45.190;5.688;2022-12-18T15:42:45;6.60;99.90
23813;DHT22;12087;45.190;5.688;2022-12-18T15:48:24;6.60;99.90
23813;DHT22;12087;45.190;5.688;2022-12-18T15:53:48;6.40;99.90
23813;DHT22;12087;45.190;5.688;2022-12-18T15:59:10;6.30;99.90
23813;DHT22;12087;45.190;5.688;2022-12-18T16:04:33;6.30;99.90
23813;DHT22;12087;45.190;5.688;2022-12-18T16:09:57;6.20;99.90
23813;DHT22;12087;45.190;5.688;2022-12-18T16:15:19;6.10;99.90
23813;DHT22;12087;45.190;5.688;2022-12-18T16:20:41;6.10;99.90
23813;DHT22;12087;45.190;5.688;2022-12-18T16:26:05;6.00;99.90
23813;DHT22;12087;45.190;5.688;2022-12-18T16:31:26;5.90;99.90
23813;DHT22;12087;45.190;5.688;2022-12-18T16:36:48;5.90;99.90
23813;DHT22;12087;45.190;5.688;2022-12-18T16:42:13;5.80;99.90
23813;DHT22;12087;45.190;5.688;2022-12-18T16:47:36;5.80;99.90
23813;DHT22;12087;45.190;5.688;2022-12-18T16:52:58;5.70;99.90
23813;DHT22;12087;45.190;5.688;2022-12-18T16:58:22;5.60;99.90
23813;DHT22;12087;45.190;5.688;2022-12-18T17:03:44;5.50;99.90
23813;DHT22;12087;45.190;5.688;2022-12-18T17:09:06;5.40;99.90
23813;DHT22;12087;45.190;5.688;2022-12-18T17:14:30;5.30;99.90
23813;DHT22;12087;45.190;5.688;2022-12-18T17:19:52;5.30;99.90
23813;DHT22;12087;45.190;5.688;2022-12-18T17:25:14;5.40;99.90
23813;DHT22;12087;45.190;5.688;2022-12-18T17:30:40;5.40;99.90
23813;DHT22;12087;45.190;5.688;2022-12-18T17:36:02;5.40;99.90
23813;DHT22;12087;45.190;5.688;2022-12-18T17:41:25;5.50;99.90
23813;DHT22;12087;45.190;5.688;2022-12-18T17:46:48;5.50;99.90
23813;DHT22;12087;45.190;5.688;2022-12-18T17:52:10;5.50;99.90
23813;DHT22;12087;45.190;5.688;2022-12-18T17:57:32;5.40;99.90
23813;DHT22;12087;45.190;5.688;2022-12-18T18:02:56;5.50;99.90
23813;DHT22;12087;45.190;5.688;2022-12-18T18:08:17;5.60;99.90
23813;DHT22;12087;45.190;5.688;2022-12-18T18:13:39;5.60;99.90
23813;DHT22;12087;45.190;5.688;2022-12-18T18:19:21;5.60;99.90
23813;DHT22;12087;45.190;5.688;2022-12-18T18:24:43;5.60;99.90
23813;DHT22;12087;45.190;5.688;2022-12-18T18:30:06;5.60;99.90
23813;DHT22;12087;45.190;5.688;2022-12-18T18:35:30;5.70;99.90
23813;DHT22;12087;45.190;5.688;2022-12-18T18:40:57;5.60;99.90
23813;DHT22;12087;45.190;5.688;2022-12-18T18:46:19;5.60;99.90
23813;DHT22;12087;45.190;5.688;2022-12-18T18:51:43;5.60;99.90
23813;DHT22;12087;45.190;5.688;2022-12-18T18:57:05;5.60;99.90
23813;DHT22;12087;45.190;5.688;2022-12-18T19:02:29;5.60;99.90
23813;DHT22;12087;45.190;5.688;2022-12-18T19:07:52;5.60;99.90
23813;DHT22;12087;45.190;5.688;2022-12-18T19:13:15;5.60;99.90
23813;DHT22;12087;45.190;5.688;2022-12-18T19:18:44;5.50;99.90
23813;DHT22;12087;45.190;5.688;2022-12-18T19:24:08;5.50;99.90
23813;DHT22;12087;45.190;5.688;2022-12-18T19:29:30;5.60;99.90
23813;DHT22;12087;45.190;5.688;2022-12-18T19:34:52;5.60;99.90
23813;DHT22;12087;45.190;5.688;2022-12-18T19:40:15;5.60;99.90
23813;DHT22;12087;45.190;5.688;2022-12-18T19:45:37;5.60;99.90
23813;DHT22;12087;45.190;5.688;2022-12-18T19:51:02;5.60;99.90
23813;DHT22;12087;45.190;5.688;2022-12-18T19:56:27;5.60;99.90
23813;DHT22;12087;45.190;5.688;2022-12-18T20:01:49;5.60;99.90
23813;DHT22;12087;45.190;5.688;2022-12-18T20:07:13;5.60;99.90
23813;DHT22;12087;45.190;5.688;2022-12-18T20:12:37;5.60;99.90
23813;DHT22;12087;45.190;5.688;2022-12-18T20:17:58;5.60;99.90
23813;DHT22;12087;45.190;5.688;2022-12-18T20:23:21;5.50;99.90
23813;DHT22;12087;45.190;5.688;2022-12-18T20:28:44;5.40;99.90
23813;DHT22;12087;45.190;5.688;2022-12-18T20:34:06;5.20;99.90
23813;DHT22;12087;45.190;5.688;2022-12-18T20:39:28;5.20;99.90
23813;DHT22;12087;45.190;5.688;2022-12-18T20:44:51;5.00;99.90
23813;DHT22;12087;45.190;5.688;2022-12-18T20:50:13;5.00;99.90
23813;DHT22;12087;45.190;5.688;2022-12-18T20:55:39;5.00;99.90
23813;DHT22;12087;45.190;5.688;2022-12-18T21:01:04;5.00;99.90
23813;DHT22;12087;45.190;5.688;2022-12-18T21:06:26;5.00;99.90
23813;DHT22;12087;45.190;5.688;2022-12-18T21:11:48;4.90;99.90
23813;DHT22;12087;45.190;5.688;2022-12-18T21:17:29;4.90;99.90
23813;DHT22;12087;45.190;5.688;2022-12-18T21:22:51;4.90;99.90
23813;DHT22;12087;45.190;5.688;2022-12-18T21:28:13;4.90;99.90
23813;DHT22;12087;45.190;5.688;2022-12-18T21:33:37;5.00;99.90
23813;DHT22;12087;45.190;5.688;2022-12-18T21:38:59;5.00;99.90
23813;DHT22;12087;45.190;5.688;2022-12-18T21:44:21;5.10;99.90
23813;DHT22;12087;45.190;5.688;2022-12-18T21:49:45;5.10;99.90
23813;DHT22;12087;45.190;5.688;2022-12-18T21:55:07;5.10;99.90
23813;DHT22;12087;45.190;5.688;2022-12-18T22:00:29;5.10;99.90
23813;DHT22;12087;45.190;5.688;2022-12-18T22:05:53;5.10;99.90
23813;DHT22;12087;45.190;5.688;2022-12-18T22:11:17;5.10;99.90
23813;DHT22;12087;45.190;5.688;2022-12-18T22:16:40;5.10;99.90
23813;DHT22;12087;45.190;5.688;2022-12-18T22:22:03;5.10;99.90
23813;DHT22;12087;45.190;5.688;2022-12-18T22:27:25;5.00;99.90
23813;DHT22;12087;45.190;5.688;2022-12-18T22:32:48;5.10;99.90
23813;DHT22;12087;45.190;5.688;2022-12-18T22:38:11;5.00;99.90
23813;DHT22;12087;45.190;5.688;2022-12-18T22:43:33;5.10;99.90
23813;DHT22;12087;45.190;5.688;2022-12-18T22:48:55;5.10;99.90
23813;DHT22;12087;45.190;5.688;2022-12-18T22:54:19;5.10;99.90
23813;DHT22;12087;45.190;5.688;2022-12-18T22:59:41;5.20;99.90
23813;DHT22;12087;45.190;5.688;2022-12-18T23:05:06;5.20;99.90
23813;DHT22;12087;45.190;5.688;2022-12-18T23:10:29;5.20;99.90
23813;DHT22;12087;45.190;5.688;2022-12-18T23:15:53;5.30;99.90
23813;DHT22;12087;45.190;5.688;2022-12-18T23:21:19;5.30;99.90
23813;DHT22;12087;45.190;5.688;2022-12-18T23:26:46;5.20;99.90
23813;DHT22;12087;45.190;5.688;2022-12-18T23:32:08;5.20;99.90
23813;DHT22;12087;45.190;5.688;2022-12-18T23:37:30;5.20;99.90
23813;DHT22;12087;45.190;5.688;2022-12-18T23:42:54;5.20;99.90
23813;DHT22;12087;45.190;5.688;2022-12-18T23:48:16;5.10;99.90
23813;DHT22;12087;45.190;5.688;2022-12-18T23:53:38;5.10;99.90
23813;DHT22;12087;45.190;5.688;2022-12-18T23:59:02;5.20;99.90
